createdAt,value
2023-03-17T00:01:54.479Z,14.46
2023-03-17T00:07:00.001Z,14.48
2023-03-17T00:12:02.152Z,14.63
2023-03-17T00:17:04.311Z,14.64
2023-03-17T00:22:10.416Z,14.69
2023-03-17T00:27:13.483Z,14.61
2023-03-17T00:32:17.940Z,14.57
2023-03-17T00:37:20.386Z,14.44
2023-03-17T00:42:24.754Z,14.50
2023-03-17T00:47:26.859Z,14.44
2023-03-17T00:52:29.022Z,14.28
2023-03-17T00:57:31.370Z,14.23
2023-03-17T01:02:33.964Z,14.06
2023-03-17T01:07:40.168Z,14.20
2023-03-17T01:12:46.193Z,14.20
2023-03-17T01:17:50.795Z,14.20
2023-03-17T01:22:52.941Z,14.28
2023-03-17T01:27:57.865Z,14.36
2023-03-17T01:33:00.302Z,14.39
2023-03-17T01:38:02.738Z,14.33
2023-03-17T01:43:10.446Z,14.41
2023-03-17T01:48:13.624Z,14.35
2023-03-17T01:53:16.941Z,14.32
2023-03-17T01:58:23.169Z,14.23
2023-03-17T02:03:26.229Z,14.13
2023-03-17T02:08:28.415Z,14.02
2023-03-17T02:13:30.460Z,13.95
2023-03-17T02:18:32.505Z,13.88
2023-03-17T02:23:37.755Z,13.78
2023-03-17T02:28:46.157Z,13.84
2023-03-17T02:33:48.244Z,13.83
2023-03-17T02:38:50.343Z,13.75
2023-03-17T02:43:53.794Z,13.63
2023-03-17T02:48:56.163Z,13.77
2023-03-17T02:54:05.293Z,13.74
2023-03-17T02:59:12.606Z,13.74
2023-03-17T03:04:14.614Z,13.79
2023-03-17T03:09:17.987Z,13.81
2023-03-17T03:14:20.148Z,13.75
2023-03-17T03:19:22.991Z,13.78
2023-03-17T03:24:25.127Z,13.81
2023-03-17T03:29:27.272Z,13.76
2023-03-17T03:34:29.455Z,13.75
2023-03-17T03:39:32.433Z,13.74
2023-03-17T03:44:34.633Z,13.73
2023-03-17T03:49:36.856Z,13.68
2023-03-17T03:54:38.918Z,13.67
2023-03-17T03:59:41.016Z,13.63
2023-03-17T04:04:43.291Z,13.60
2023-03-17T04:09:45.998Z,13.56
2023-03-17T04:14:48.056Z,13.45
2023-03-17T04:19:50.090Z,13.51
2023-03-17T04:24:52.422Z,13.49
2023-03-17T04:29:54.553Z,13.44
2023-03-17T04:35:04.869Z,13.43
2023-03-17T04:40:10.230Z,13.41
2023-03-17T04:45:14.827Z,13.41
2023-03-17T04:50:18.085Z,13.27
2023-03-17T04:55:21.000Z,13.21
2023-03-17T05:00:23.075Z,13.05
2023-03-17T05:05:25.067Z,13.10
2023-03-17T05:10:27.184Z,13.02
2023-03-17T05:15:29.761Z,13.01
2023-03-17T05:20:32.251Z,12.96
2023-03-17T05:25:35.020Z,12.87
2023-03-17T05:30:37.298Z,12.79
2023-03-17T05:35:42.126Z,12.80
2023-03-17T05:40:44.681Z,12.86
2023-03-17T05:45:47.950Z,12.85
2023-03-17T05:50:51.434Z,12.85
2023-03-17T05:55:53.456Z,12.80
2023-03-17T06:00:59.105Z,12.77
2023-03-17T06:06:01.150Z,12.83
2023-03-17T06:11:03.288Z,12.84
2023-03-17T06:16:06.296Z,12.74
2023-03-17T06:21:08.364Z,12.82
2023-03-17T06:26:10.548Z,12.79
2023-03-17T06:31:12.700Z,12.76
2023-03-17T06:36:15.011Z,12.65
2023-03-17T06:41:20.371Z,12.67
2023-03-17T06:46:24.459Z,12.61
2023-03-17T06:51:26.616Z,12.56
2023-03-17T06:56:30.591Z,12.55
2023-03-17T07:01:42.385Z,12.57
2023-03-17T07:06:45.225Z,12.62
2023-03-17T07:11:47.386Z,12.66
2023-03-17T07:16:50.310Z,12.63
2023-03-17T07:21:52.427Z,12.60
2023-03-17T07:26:54.507Z,12.55
2023-03-17T07:31:56.678Z,12.53
2023-03-17T07:36:59.281Z,12.50
2023-03-17T07:42:01.470Z,12.56
2023-03-17T07:47:06.069Z,12.59
2023-03-17T07:52:09.697Z,12.63
2023-03-17T07:57:12.449Z,12.75
2023-03-17T08:02:16.647Z,12.83
2023-03-17T08:07:20.505Z,12.84
2023-03-17T08:12:22.541Z,12.88
2023-03-17T08:17:28.481Z,13.15
2023-03-17T08:22:30.752Z,13.27
2023-03-17T08:27:33.976Z,13.53
2023-03-17T08:32:37.159Z,13.35
2023-03-17T08:37:39.450Z,13.39
2023-03-17T08:42:41.609Z,13.49
2023-03-17T08:47:43.842Z,13.50
2023-03-17T08:52:46.162Z,13.67
2023-03-17T08:57:48.958Z,13.66
2023-03-17T09:02:52.629Z,13.77
2023-03-17T09:07:54.845Z,14.06
2023-03-17T09:13:03.172Z,14.69
2023-03-17T09:18:05.956Z,15.05
2023-03-17T09:23:10.411Z,14.80
2023-03-17T09:28:12.845Z,14.76
2023-03-17T09:33:15.877Z,14.76
2023-03-17T09:38:18.000Z,14.74
2023-03-17T09:43:43.236Z,14.91
2023-03-17T09:48:53.867Z,16.25
2023-03-17T09:54:24.870Z,16.83
2023-03-17T09:59:39.071Z,17.28
2023-03-17T10:04:43.108Z,18.13
2023-03-17T10:10:03.219Z,18.92
2023-03-17T10:15:11.649Z,19.17
2023-03-17T10:20:16.567Z,19.25
2023-03-17T10:25:19.668Z,18.63
2023-03-17T10:30:23.580Z,18.84
2023-03-17T10:35:25.808Z,18.76
2023-03-17T10:40:30.555Z,18.44
2023-03-17T10:45:38.399Z,18.84
2023-03-17T10:50:41.398Z,19.80
2023-03-17T10:55:53.950Z,19.84
2023-03-17T11:01:03.927Z,20.55
2023-03-17T11:06:17.719Z,20.78
2023-03-17T11:11:34.869Z,20.36
2023-03-17T11:16:38.999Z,20.28
2023-03-17T11:21:47.551Z,20.21
2023-03-17T11:27:25.557Z,19.99
2023-03-17T11:32:51.503Z,19.88
2023-03-17T11:37:59.544Z,19.25
2023-03-17T11:43:16.731Z,19.20
2023-03-17T11:48:51.712Z,18.76
2023-03-17T11:54:03.108Z,18.47
2023-03-17T12:00:04.299Z,18.30
2023-03-17T12:05:17.118Z,17.91
2023-03-17T12:10:45.601Z,17.88
2023-03-17T12:15:51.598Z,17.46
2023-03-17T12:21:15.612Z,17.47
2023-03-17T12:26:24.423Z,17.38
2023-03-17T12:31:39.033Z,17.15
2023-03-17T12:36:43.126Z,17.47
2023-03-17T12:41:59.841Z,17.31
2023-03-17T12:47:22.627Z,17.22
2023-03-17T12:52:40.561Z,17.07
2023-03-17T12:57:44.987Z,17.11
2023-03-17T13:02:50.026Z,17.06
2023-03-17T13:08:00.541Z,17.05
2023-03-17T13:14:01.225Z,17.17
2023-03-17T13:19:20.288Z,17.17
2023-03-17T13:24:24.451Z,17.19
2023-03-17T13:29:32.861Z,17.53
2023-03-17T13:34:46.208Z,17.13
2023-03-17T13:39:54.001Z,17.07
2023-03-17T13:45:14.380Z,17.19
2023-03-17T13:50:22.946Z,17.12
2023-03-17T13:55:25.067Z,17.15
2023-03-17T14:00:33.337Z,17.10
2023-03-17T14:05:38.184Z,17.28
2023-03-17T14:10:40.513Z,17.59
2023-03-17T14:16:07.419Z,17.58
2023-03-17T14:21:41.699Z,17.54
2023-03-17T14:26:43.922Z,17.53
2023-03-17T14:31:53.334Z,17.40
2023-03-17T14:37:00.959Z,17.37
2023-03-17T14:42:04.968Z,17.25
2023-03-17T14:47:30.302Z,17.46
2023-03-17T14:52:34.652Z,17.33
2023-03-17T14:57:37.490Z,17.38
2023-03-17T15:02:47.913Z,17.40
2023-03-17T15:07:50.117Z,17.39
2023-03-17T15:13:01.404Z,17.51
2023-03-17T15:18:12.020Z,17.56
2023-03-17T15:23:18.484Z,17.51
2023-03-17T15:28:21.939Z,17.38
2023-03-17T15:33:23.977Z,17.43
2023-03-17T15:38:27.011Z,17.35
2023-03-17T15:43:29.043Z,17.25
2023-03-17T15:48:33.361Z,17.36
2023-03-17T15:53:35.255Z,17.11
2023-03-17T15:58:38.113Z,17.19
2023-03-17T16:03:42.277Z,16.97
2023-03-17T16:08:44.452Z,16.94
2023-03-17T16:13:47.916Z,17.07
2023-03-17T16:18:51.819Z,17.01
2023-03-17T16:23:54.716Z,16.82
2023-03-17T16:28:57.231Z,16.85
2023-03-17T16:33:59.664Z,16.67
2023-03-17T16:39:01.709Z,16.40
2023-03-17T16:44:03.946Z,16.42
2023-03-17T16:49:06.473Z,16.48
2023-03-17T16:54:08.805Z,16.47
2023-03-17T16:59:17.847Z,16.40
2023-03-17T17:04:20.058Z,16.22
2023-03-17T17:09:22.550Z,16.23
2023-03-17T17:14:26.850Z,16.12
2023-03-17T17:19:29.032Z,16.09
2023-03-17T17:24:31.432Z,15.85
2023-03-17T17:29:33.501Z,15.80
2023-03-17T17:34:35.769Z,15.71
2023-03-17T17:39:38.514Z,15.59
2023-03-17T17:44:41.021Z,15.54
2023-03-17T17:49:43.655Z,15.39
2023-03-17T17:54:46.019Z,15.33
2023-03-17T17:59:48.324Z,15.24
2023-03-17T18:04:51.764Z,15.15
2023-03-17T18:09:53.828Z,15.13
2023-03-17T18:14:56.234Z,14.99
2023-03-17T18:19:58.732Z,14.90
2023-03-17T18:25:01.651Z,14.81
2023-03-17T18:30:06.375Z,14.75
2023-03-17T18:35:10.900Z,14.66
2023-03-17T18:40:17.989Z,14.57
2023-03-17T18:45:21.532Z,14.45
2023-03-17T18:50:23.931Z,14.48
2023-03-17T18:55:26.613Z,14.46
2023-03-17T19:00:28.985Z,14.39
2023-03-17T19:05:31.559Z,14.38
2023-03-17T19:10:34.174Z,14.28
2023-03-17T19:15:36.417Z,14.30
2023-03-17T19:20:38.580Z,14.26
2023-03-17T19:25:40.521Z,14.18
2023-03-17T19:30:45.314Z,14.08
2023-03-17T19:35:53.688Z,14.00
2023-03-17T19:40:55.865Z,13.81
2023-03-17T19:45:58.188Z,13.86
2023-03-17T19:51:01.202Z,13.79
2023-03-17T19:56:04.370Z,13.71
2023-03-17T20:01:07.774Z,13.65
2023-03-17T20:06:10.921Z,13.51
2023-03-17T20:11:13.634Z,13.47
2023-03-17T20:16:16.820Z,13.42
2023-03-17T20:21:19.127Z,13.31
2023-03-17T20:26:21.406Z,13.31
2023-03-17T20:31:23.876Z,13.21
2023-03-17T20:36:26.816Z,13.09
2023-03-17T20:41:29.194Z,13.09
2023-03-17T20:46:31.411Z,13.06
2023-03-17T20:51:34.161Z,12.94
2023-03-17T20:56:37.545Z,12.97
2023-03-17T21:01:40.559Z,12.90
2023-03-17T21:06:43.910Z,12.83
2023-03-17T21:11:45.932Z,12.85
2023-03-17T21:16:48.060Z,12.70
2023-03-17T21:21:50.171Z,12.52
2023-03-17T21:26:52.157Z,12.49
2023-03-17T21:31:54.838Z,12.55
2023-03-17T21:36:59.144Z,12.54
2023-03-17T21:42:02.197Z,12.38
2023-03-17T21:47:04.450Z,12.27
2023-03-17T21:52:07.453Z,12.11
2023-03-17T21:57:11.974Z,12.07
2023-03-17T22:02:16.723Z,12.10
2023-03-17T22:07:18.960Z,12.04
2023-03-17T22:12:21.284Z,12.00
2023-03-17T22:17:23.512Z,11.85
2023-03-17T22:22:25.571Z,11.87
2023-03-17T22:27:27.599Z,11.78
2023-03-17T22:32:29.818Z,11.71
2023-03-17T22:37:32.461Z,11.65
2023-03-17T22:42:34.865Z,11.63
2023-03-17T22:47:36.885Z,11.59
2023-03-17T22:52:38.926Z,11.61
2023-03-17T22:57:41.067Z,11.66
2023-03-17T23:02:44.882Z,11.70
2023-03-17T23:07:50.707Z,11.70
2023-03-17T23:12:53.057Z,11.67
2023-03-17T23:17:55.127Z,11.58
2023-03-17T23:22:58.977Z,11.41
2023-03-17T23:28:01.223Z,11.35
2023-03-17T23:33:05.112Z,11.35
2023-03-17T23:38:08.844Z,11.33
2023-03-17T23:43:11.035Z,11.24
2023-03-17T23:48:13.032Z,11.24
2023-03-17T23:53:15.150Z,11.14
2023-03-17T23:58:17.989Z,11.03
